Time;durP1;ratioP1;P1;durP2;ratioP2;P2;SDS_P1;SDS_P2;PMS_P1;PMS_P2;Temp;Humidity;BMP_temperature;BMP_pressure;BME280_temperature;BME280_humidity;BME280_pressure;Samples;Min_cycle;Max_cycle;Signal;HPM_P1;HPM_P2
2021/12/19 00:00:10;;;;;;;;;;;9.10;96.00;;;;;;5023291;28;20091;-87
2021/12/19 00:02:47;;;;;;;;;;;9.10;96.00;;;;;;5031509;28;19919;-87
2021/12/19 00:10:45;;;;;;;;;;;9.10;96.00;;;;;;5033985;28;19911;-87
2021/12/19 00:13:13;;;;;;;;;;;9.10;96.00;;;;;;5026411;28;20558;-87
2021/12/19 00:15:40;;;;;;;;;;;9.10;96.00;;;;;;5024649;28;19909;-87
2021/12/19 00:18:06;;;;;;;;;;;9.10;96.00;;;;;;5018323;28;19917;-87
2021/12/19 00:20:33;;;;;;;;;;;9.10;96.00;;;;;;5034395;28;20403;-87
2021/12/19 00:23:00;;;;;;;;;;;9.10;96.00;;;;;;5019107;28;19909;-87
2021/12/19 00:25:27;;;;;;;;;;;9.10;96.00;;;;;;5019433;28;20103;-87
2021/12/19 00:27:54;;;;;;;;;;;9.10;96.10;;;;;;5031539;28;19909;-87
2021/12/19 00:30:21;;;;;;;;;;;9.10;96.10;;;;;;5035202;28;20373;-87
2021/12/19 00:32:48;;;;;;;;;;;9.10;96.10;;;;;;5018819;28;19917;-87
2021/12/19 00:35:15;;;;;;;;;;;9.10;96.10;;;;;;5025438;28;20380;-87
2021/12/19 00:37:41;;;;;;;;;;;9.10;96.00;;;;;;5034878;28;19909;-87
2021/12/19 00:40:09;;;;;;;;;;;9.20;96.10;;;;;;5012513;28;20456;-87
2021/12/19 00:42:36;;;;;;;;;;;9.20;96.10;;;;;;5023848;28;20143;-87
2021/12/19 00:45:12;;;;;;;;;;;9.20;96.00;;;;;;5019502;28;19986;-87
2021/12/19 00:47:39;;;;;;;;;;;9.20;96.00;;;;;;5022000;28;19915;-87
2021/12/19 00:50:06;;;;;;;;;;;9.20;96.00;;;;;;5026234;28;19943;-87
2021/12/19 00:52:33;;;;;;;;;;;9.20;96.00;;;;;;5036745;28;19913;-87
2021/12/19 00:55:00;;;;;;;;;;;9.20;96.00;;;;;;5015332;28;19909;-87
2021/12/19 00:57:27;;;;;;;;;;;9.20;96.00;;;;;;5029261;28;19909;-87
2021/12/19 00:59:54;;;;;;;;;;;9.20;96.00;;;;;;5019652;28;20313;-87
2021/12/19 01:02:21;;;;;;;;;;;9.20;96.00;;;;;;5028565;28;19909;-86
2021/12/19 01:04:47;;;;;;;;;;;9.20;96.00;;;;;;5025445;28;20029;-87
2021/12/19 01:07:14;;;;;;;;;;;9.20;96.00;;;;;;5028397;28;19909;-87
2021/12/19 01:09:41;;;;;;;;;;;9.20;96.00;;;;;;5018510;28;19919;-86
2021/12/19 01:12:11;;;;;;;;;;;9.30;96.00;;;;;;5043678;28;19909;-87
2021/12/19 01:14:38;;;;;;;;;;;9.30;96.10;;;;;;5006705;28;20285;-87
2021/12/19 01:17:05;;;;;;;;;;;9.30;96.10;;;;;;5013196;28;19909;-87
2021/12/19 01:19:32;;;;;;;;;;;9.20;96.00;;;;;;5013647;28;20289;-87
2021/12/19 01:21:59;;;;;;;;;;;9.30;96.00;;;;;;5034172;28;19909;-86
2021/12/19 01:24:26;;;;;;;;;;;9.20;96.00;;;;;;5029867;28;19909;-87
2021/12/19 01:26:53;;;;;;;;;;;9.20;96.00;;;;;;5027352;28;20219;-86
2021/12/19 01:29:20;;;;;;;;;;;9.20;96.00;;;;;;5029313;28;19909;-87
2021/12/19 01:31:47;;;;;;;;;;;9.30;96.00;;;;;;5023916;28;20313;-87
2021/12/19 01:34:14;;;;;;;;;;;9.30;96.10;;;;;;5023490;28;20396;-86
2021/12/19 01:36:41;;;;;;;;;;;9.20;96.00;;;;;;5019496;28;19915;-86
2021/12/19 01:39:09;;;;;;;;;;;9.30;96.10;;;;;;5023919;28;20324;-86
2021/12/19 01:41:45;;;;;;;;;;;9.30;96.10;;;;;;5029834;28;19916;-86
2021/12/19 01:44:12;;;;;;;;;;;9.30;96.00;;;;;;5026675;28;19909;-86
2021/12/19 01:46:39;;;;;;;;;;;9.30;96.10;;;;;;5029106;28;19917;-86
2021/12/19 01:49:06;;;;;;;;;;;9.30;96.00;;;;;;5023025;28;20346;-86
2021/12/19 01:51:32;;;;;;;;;;;9.30;96.00;;;;;;5009031;28;19913;-86
2021/12/19 01:53:59;;;;;;;;;;;9.30;96.10;;;;;;5028150;28;19915;-86
2021/12/19 01:56:26;;;;;;;;;;;9.30;96.00;;;;;;5029138;28;20636;-86
2021/12/19 01:58:53;;;;;;;;;;;9.30;96.00;;;;;;5035527;28;19923;-86
2021/12/19 02:01:20;;;;;;;;;;;9.30;96.00;;;;;;5026841;28;19921;-85
2021/12/19 02:03:47;;;;;;;;;;;9.30;96.00;;;;;;5026842;28;20379;-85
2021/12/19 02:06:14;;;;;;;;;;;9.30;96.00;;;;;;5028115;28;19919;-85
2021/12/19 02:08:41;;;;;;;;;;;9.30;96.00;;;;;;5026022;28;19987;-85
2021/12/19 02:11:08;;;;;;;;;;;9.30;96.00;;;;;;5027878;28;19915;-85
2021/12/19 02:13:34;;;;;;;;;;;9.40;96.00;;;;;;5029871;28;19908;-85
2021/12/19 02:16:01;;;;;;;;;;;9.30;96.00;;;;;;5030373;28;19909;-85
2021/12/19 02:18:28;;;;;;;;;;;9.30;96.00;;;;;;5024371;28;20287;-85
2021/12/19 02:20:56;;;;;;;;;;;9.30;96.00;;;;;;5024670;28;19917;-85
2021/12/19 02:23:24;;;;;;;;;;;9.40;96.00;;;;;;5029557;28;20128;-85
2021/12/19 02:25:52;;;;;;;;;;;9.40;96.00;;;;;;5038080;28;20108;-85
2021/12/19 02:28:19;;;;;;;;;;;9.30;96.00;;;;;;5021706;28;19909;-85
2021/12/19 02:30:46;;;;;;;;;;;9.40;96.00;;;;;;5013204;28;20901;-85
2021/12/19 02:33:17;;;;;;;;;;;9.30;96.00;;;;;;5030154;28;19917;-85
2021/12/19 02:35:51;;;;;;;;;;;9.30;95.90;;;;;;5015437;28;20290;-85
2021/12/19 02:49:19;;;;;;;;;;;9.30;96.00;;;;;;5020591;28;20380;-85
2021/12/19 02:51:46;;;;;;;;;;;9.30;96.00;;;;;;5014022;28;20377;-85
2021/12/19 02:54:13;;;;;;;;;;;9.30;96.00;;;;;;5029945;28;20292;-85
2021/12/19 02:56:40;;;;;;;;;;;9.30;96.00;;;;;;5032944;28;20451;-85
2021/12/19 02:59:07;;;;;;;;;;;9.30;96.00;;;;;;5035495;28;19919;-85
2021/12/19 03:01:34;;;;;;;;;;;9.40;96.00;;;;;;5026869;28;19912;-85
2021/12/19 03:04:00;;;;;;;;;;;9.40;96.00;;;;;;5031464;28;19915;-85
2021/12/19 03:06:27;;;;;;;;;;;9.40;96.00;;;;;;5020486;28;19919;-85
2021/12/19 03:08:57;;;;;;;;;;;9.40;96.00;;;;;;5009629;28;20013;-85
2021/12/19 03:19:40;;;;;;;;;;;9.30;95.90;;;;;;5022765;28;19911;-85
2021/12/19 03:22:07;;;;;;;;;;;9.30;95.90;;;;;;5017925;28;19913;-85
2021/12/19 03:24:34;;;;;;;;;;;9.30;96.00;;;;;;5007091;28;19947;-85
2021/12/19 03:27:01;;;;;;;;;;;9.30;95.90;;;;;;5021074;28;19915;-85
2021/12/19 03:29:28;;;;;;;;;;;9.30;95.90;;;;;;5017524;28;19909;-85
2021/12/19 03:31:55;;;;;;;;;;;9.30;95.90;;;;;;5020879;28;19921;-85
2021/12/19 03:34:22;;;;;;;;;;;9.30;95.90;;;;;;5020975;28;19909;-85
2021/12/19 03:36:49;;;;;;;;;;;9.30;95.90;;;;;;5035080;28;20289;-85
2021/12/19 03:39:25;;;;;;;;;;;9.30;95.90;;;;;;5021573;28;20401;-85
2021/12/19 03:41:55;;;;;;;;;;;9.30;95.90;;;;;;5019780;28;21368;-85
2021/12/19 03:44:22;;;;;;;;;;;9.30;95.90;;;;;;5028840;28;19909;-85
2021/12/19 03:46:49;;;;;;;;;;;9.30;96.00;;;;;;5010418;28;20759;-85
2021/12/19 03:49:18;;;;;;;;;;;9.30;95.90;;;;;;5018527;28;19924;-85
2021/12/19 03:51:45;;;;;;;;;;;9.30;95.90;;;;;;5027510;28;19942;-85
2021/12/19 03:54:12;;;;;;;;;;;9.30;95.90;;;;;;5013526;28;19916;-85
2021/12/19 03:56:39;;;;;;;;;;;9.30;95.90;;;;;;5013720;28;20447;-85
2021/12/19 03:59:06;;;;;;;;;;;9.30;95.90;;;;;;5035042;28;20399;-85
2021/12/19 04:01:33;;;;;;;;;;;9.30;95.90;;;;;;5023368;28;19917;-85
2021/12/19 04:04:00;;;;;;;;;;;9.30;95.90;;;;;;5013146;28;19913;-85
2021/12/19 04:06:28;;;;;;;;;;;9.30;95.90;;;;;;5030348;28;19913;-85
2021/12/19 04:08:56;;;;;;;;;;;9.20;95.90;;;;;;5026986;28;20099;-85
2021/12/19 04:11:25;;;;;;;;;;;9.20;95.90;;;;;;5017957;28;19922;-85
2021/12/19 04:13:52;;;;;;;;;;;9.30;95.90;;;;;;5031672;28;19909;-85
2021/12/19 04:16:19;;;;;;;;;;;9.30;95.90;;;;;;5022062;28;19909;-85
2021/12/19 04:18:45;;;;;;;;;;;9.30;95.90;;;;;;5014404;28;20082;-85
2021/12/19 04:21:12;;;;;;;;;;;9.20;95.90;;;;;;5041359;28;19919;-85
2021/12/19 04:23:40;;;;;;;;;;;9.20;95.90;;;;;;5031971;28;19997;-85
2021/12/19 04:26:07;;;;;;;;;;;9.30;95.90;;;;;;5026110;28;19915;-85
2021/12/19 04:28:34;;;;;;;;;;;9.20;95.90;;;;;;5035948;28;19935;-85
2021/12/19 04:31:03;;;;;;;;;;;9.30;95.90;;;;;;5020171;28;20215;-85
2021/12/19 04:33:31;;;;;;;;;;;9.20;95.90;;;;;;5024176;28;20368;-85
2021/12/19 04:36:01;;;;;;;;;;;9.30;96.00;;;;;;5037512;28;20013;-85
2021/12/19 04:59:57;;;;;;;;;;;9.20;96.00;;;;;;5022441;28;20181;-85
2021/12/19 05:15:58;;;;;;;;;;;9.20;96.00;;;;;;5027772;28;19923;-85
2021/12/19 05:18:29;;;;;;;;;;;9.20;96.00;;;;;;5025876;28;19908;-85
2021/12/19 05:21:00;;;;;;;;;;;9.20;96.00;;;;;;5019587;28;20136;-85
2021/12/19 05:25:54;;;;;;;;;;;9.20;96.00;;;;;;5026945;28;19935;-85
2021/12/19 05:28:21;;;;;;;;;;;9.20;96.00;;;;;;5023785;28;20325;-85
2021/12/19 05:30:48;;;;;;;;;;;9.20;96.00;;;;;;5004850;28;19924;-85
2021/12/19 05:33:15;;;;;;;;;;;9.20;96.00;;;;;;5045935;28;19917;-85
2021/12/19 05:44:12;;;;;;;;;;;9.20;96.00;;;;;;5029812;28;19919;-85
2021/12/19 05:46:45;;;;;;;;;;;9.20;96.00;;;;;;5009625;28;20288;-85
2021/12/19 05:49:12;;;;;;;;;;;9.20;96.00;;;;;;5032037;28;19913;-85
2021/12/19 05:51:39;;;;;;;;;;;9.20;95.90;;;;;;5039462;28;19915;-85
2021/12/19 05:54:06;;;;;;;;;;;9.20;95.90;;;;;;5017366;28;19916;-85
2021/12/19 05:56:33;;;;;;;;;;;9.20;96.00;;;;;;5024530;28;19921;-85
2021/12/19 05:59:00;;;;;;;;;;;9.10;95.90;;;;;;5026283;28;19915;-85
2021/12/19 06:01:27;;;;;;;;;;;9.10;96.00;;;;;;5021107;28;19915;-85
2021/12/19 06:03:53;;;;;;;;;;;9.20;96.00;;;;;;5018099;28;19920;-86
2021/12/19 06:06:20;;;;;;;;;;;9.10;96.00;;;;;;5002846;28;19931;-85
2021/12/19 06:08:47;;;;;;;;;;;9.20;96.00;;;;;;5004360;28;19952;-86
2021/12/19 06:11:14;;;;;;;;;;;9.20;96.00;;;;;;5011521;28;19917;-86
2021/12/19 06:13:41;;;;;;;;;;;9.20;96.00;;;;;;5030474;28;20098;-86
2021/12/19 06:16:08;;;;;;;;;;;9.10;96.00;;;;;;5021838;28;19917;-85
2021/12/19 06:18:35;;;;;;;;;;;9.10;96.00;;;;;;5022805;28;20377;-85
2021/12/19 06:21:03;;;;;;;;;;;9.20;96.00;;;;;;5031469;28;19912;-85
2021/12/19 06:23:30;;;;;;;;;;;9.10;96.00;;;;;;5009521;28;19913;-86
2021/12/19 06:25:57;;;;;;;;;;;9.20;96.00;;;;;;5016273;28;20290;-86
2021/12/19 06:28:24;;;;;;;;;;;9.10;96.00;;;;;;5028940;28;20405;-85
2021/12/19 06:30:51;;;;;;;;;;;9.20;96.00;;;;;;5031992;28;19916;-86
2021/12/19 06:33:17;;;;;;;;;;;9.10;96.00;;;;;;5020791;28;20405;-86
2021/12/19 06:35:44;;;;;;;;;;;9.10;96.00;;;;;;5033533;28;19919;-86
2021/12/19 06:38:13;;;;;;;;;;;9.20;96.10;;;;;;5009813;28;19913;-86
2021/12/19 06:40:39;;;;;;;;;;;9.20;96.10;;;;;;5014971;28;20487;-86
2021/12/19 06:43:07;;;;;;;;;;;9.20;96.10;;;;;;5034660;28;19912;-86
2021/12/19 06:45:34;;;;;;;;;;;9.10;96.00;;;;;;5034471;28;20255;-86
2021/12/19 06:48:01;;;;;;;;;;;9.20;96.00;;;;;;5031103;28;19913;-86
2021/12/19 06:50:28;;;;;;;;;;;9.20;96.00;;;;;;5032587;28;19939;-86
2021/12/19 06:52:55;;;;;;;;;;;9.10;96.00;;;;;;5020011;28;19917;-86
2021/12/19 06:55:22;;;;;;;;;;;9.20;96.00;;;;;;5005735;28;19912;-86
2021/12/19 06:57:49;;;;;;;;;;;9.10;96.00;;;;;;5034179;28;19905;-86
2021/12/19 07:00:17;;;;;;;;;;;9.10;96.00;;;;;;5024053;28;20370;-86
2021/12/19 07:02:44;;;;;;;;;;;9.10;96.00;;;;;;5008747;28;20630;-86
2021/12/19 07:05:11;;;;;;;;;;;9.20;96.10;;;;;;5025470;28;19918;-86
2021/12/19 07:07:38;;;;;;;;;;;9.20;96.10;;;;;;5012969;28;19916;-86
2021/12/19 07:10:07;;;;;;;;;;;9.20;96.10;;;;;;5002079;28;20179;-86
2021/12/19 07:12:34;;;;;;;;;;;9.20;96.10;;;;;;5007049;28;20368;-86
2021/12/19 07:15:02;;;;;;;;;;;9.10;96.10;;;;;;5018785;28;19908;-86
2021/12/19 07:17:29;;;;;;;;;;;9.20;96.10;;;;;;5032281;28;19934;-86
2021/12/19 07:19:56;;;;;;;;;;;9.20;96.10;;;;;;5010331;28;19916;-86
2021/12/19 07:22:23;;;;;;;;;;;9.20;96.10;;;;;;5023465;28;19909;-86
2021/12/19 07:24:50;;;;;;;;;;;9.20;96.10;;;;;;5007665;28;20318;-86
2021/12/19 07:27:17;;;;;;;;;;;9.20;96.10;;;;;;5006828;28;19917;-86
2021/12/19 07:29:44;;;;;;;;;;;9.20;96.10;;;;;;5029344;28;19909;-86
2021/12/19 07:32:11;;;;;;;;;;;9.20;96.10;;;;;;5032937;28;20095;-86
2021/12/19 07:34:39;;;;;;;;;;;9.20;96.10;;;;;;5015201;28;19909;-87
2021/12/19 07:37:06;;;;;;;;;;;9.10;96.00;;;;;;5034492;28;19908;-86
2021/12/19 07:42:05;;;;;;;;;;;9.20;96.10;;;;;;5001896;28;19917;-86
2021/12/19 07:44:32;;;;;;;;;;;9.20;96.10;;;;;;5021741;28;20391;-86
2021/12/19 07:46:59;;;;;;;;;;;9.20;96.10;;;;;;5019066;28;20599;-86
2021/12/19 07:49:26;;;;;;;;;;;9.20;96.10;;;;;;5019658;28;20026;-86
2021/12/19 07:51:53;;;;;;;;;;;9.20;96.10;;;;;;5035572;28;19909;-86
2021/12/19 07:54:20;;;;;;;;;;;9.20;96.10;;;;;;5033586;28;19908;-86
2021/12/19 07:56:47;;;;;;;;;;;9.20;96.10;;;;;;5011240;28;19909;-86
2021/12/19 07:59:14;;;;;;;;;;;9.20;96.10;;;;;;5027914;28;19915;-87
2021/12/19 08:01:40;;;;;;;;;;;9.20;96.00;;;;;;5017889;28;19917;-86
2021/12/19 08:04:07;;;;;;;;;;;9.20;96.10;;;;;;5016093;28;20204;-87
2021/12/19 08:06:34;;;;;;;;;;;9.20;96.00;;;;;;5030165;28;20281;-87
2021/12/19 08:09:08;;;;;;;;;;;9.20;96.10;;;;;;5015830;28;20115;-86
2021/12/19 08:11:41;;;;;;;;;;;9.20;96.00;;;;;;5020328;28;20317;-86
2021/12/19 08:14:09;;;;;;;;;;;9.20;96.00;;;;;;5011687;28;20338;-86
2021/12/19 08:16:36;;;;;;;;;;;9.20;96.10;;;;;;5019340;28;19909;-86
2021/12/19 08:19:03;;;;;;;;;;;9.20;96.00;;;;;;5012068;28;21708;-86
2021/12/19 08:21:30;;;;;;;;;;;9.20;96.00;;;;;;5017939;28;19908;-86
2021/12/19 08:24:00;;;;;;;;;;;9.20;96.00;;;;;;5032738;28;19923;-86
2021/12/19 08:26:27;;;;;;;;;;;9.10;96.00;;;;;;5029389;28;20124;-86
2021/12/19 08:28:54;;;;;;;;;;;9.10;96.00;;;;;;5005618;28;19913;-86
2021/12/19 08:31:21;;;;;;;;;;;9.20;96.00;;;;;;5010671;28;19909;-86
2021/12/19 08:33:48;;;;;;;;;;;9.10;96.00;;;;;;5023231;28;20180;-86
2021/12/19 08:36:15;;;;;;;;;;;9.10;96.00;;;;;;5010481;28;19964;-86
2021/12/19 08:38:42;;;;;;;;;;;9.20;96.00;;;;;;5020697;28;20129;-86
2021/12/19 08:41:09;;;;;;;;;;;9.10;96.00;;;;;;5030765;28;19908;-86
2021/12/19 08:43:35;;;;;;;;;;;9.10;96.00;;;;;;5006037;28;19912;-86
2021/12/19 08:46:02;;;;;;;;;;;9.10;96.00;;;;;;5021990;28;19908;-87
2021/12/19 08:48:29;;;;;;;;;;;9.10;96.00;;;;;;5008529;28;19923;-87
2021/12/19 08:50:56;;;;;;;;;;;9.20;96.10;;;;;;5019641;28;20274;-87
2021/12/19 08:53:23;;;;;;;;;;;9.10;96.00;;;;;;5037480;28;20100;-87
2021/12/19 08:55:50;;;;;;;;;;;9.10;96.00;;;;;;5023865;28;20108;-87
2021/12/19 08:58:17;;;;;;;;;;;9.20;96.10;;;;;;5026013;28;19920;-86
2021/12/19 09:00:43;;;;;;;;;;;9.20;96.10;;;;;;5008764;28;20333;-87
2021/12/19 09:03:10;;;;;;;;;;;9.20;96.10;;;;;;5023306;28;20293;-87
2021/12/19 09:05:37;;;;;;;;;;;9.20;96.20;;;;;;5014606;28;19921;-87
2021/12/19 09:08:04;;;;;;;;;;;9.20;96.20;;;;;;5017736;28;19923;-86
2021/12/19 09:10:32;;;;;;;;;;;9.20;96.50;;;;;;5030358;28;19908;-86
2021/12/19 09:12:59;;;;;;;;;;;9.20;96.20;;;;;;5025489;28;20358;-86
2021/12/19 09:15:25;;;;;;;;;;;9.30;96.20;;;;;;5027493;28;19921;-86
2021/12/19 09:17:52;;;;;;;;;;;9.30;96.20;;;;;;5007815;28;22188;-86
2021/12/19 09:20:19;;;;;;;;;;;9.30;96.20;;;;;;5031901;28;20289;-86
2021/12/19 09:22:46;;;;;;;;;;;9.30;96.20;;;;;;5021229;28;19939;-87
2021/12/19 09:25:13;;;;;;;;;;;9.30;96.20;;;;;;5034490;28;19920;-87
2021/12/19 09:27:40;;;;;;;;;;;9.30;96.20;;;;;;5023259;28;19913;-87
2021/12/19 09:30:07;;;;;;;;;;;9.40;96.30;;;;;;5031741;28;19908;-86
2021/12/19 09:32:34;;;;;;;;;;;9.40;96.30;;;;;;5014623;28;19925;-87
2021/12/19 09:35:01;;;;;;;;;;;9.40;96.30;;;;;;5036124;28;19909;-87
2021/12/19 09:37:29;;;;;;;;;;;9.40;96.30;;;;;;5023133;28;19915;-86
2021/12/19 09:39:56;;;;;;;;;;;9.50;96.30;;;;;;5029601;28;20108;-86
2021/12/19 09:42:32;;;;;;;;;;;9.40;96.20;;;;;;5035186;28;19915;-86
2021/12/19 09:45:01;;;;;;;;;;;9.40;96.20;;;;;;5036587;28;20595;-87
2021/12/19 09:47:28;;;;;;;;;;;9.50;96.20;;;;;;5014226;28;20031;-86
2021/12/19 09:49:57;;;;;;;;;;;9.40;96.20;;;;;;5022975;28;19935;-87
2021/12/19 09:52:24;;;;;;;;;;;9.50;96.20;;;;;;5023103;28;19934;-87
2021/12/19 09:54:51;;;;;;;;;;;9.50;96.20;;;;;;5018662;28;20433;-87
2021/12/19 09:57:18;;;;;;;;;;;9.50;96.20;;;;;;5029733;28;19931;-86
2021/12/19 09:59:45;;;;;;;;;;;9.50;96.20;;;;;;5037163;28;20098;-86
2021/12/19 10:02:12;;;;;;;;;;;9.50;96.20;;;;;;5027958;28;19908;-86
2021/12/19 10:04:40;;;;;;;;;;;9.50;96.20;;;;;;5019658;28;19912;-86
2021/12/19 10:07:10;;;;;;;;;;;9.50;96.20;;;;;;5010715;28;20380;-86
2021/12/19 10:09:38;;;;;;;;;;;9.50;96.50;;;;;;5010225;28;23906;-87
2021/12/19 10:12:24;;;;;;;;;;;9.50;96.20;;;;;;5033228;28;19909;-87
2021/12/19 10:14:52;;;;;;;;;;;9.50;96.20;;;;;;5026369;28;20376;-87
2021/12/19 10:17:19;;;;;;;;;;;9.50;96.20;;;;;;5021562;28;19919;-86
2021/12/19 10:19:50;;;;;;;;;;;9.50;96.20;;;;;;5017381;28;19912;-87
2021/12/19 10:22:37;;;;;;;;;;;9.50;96.20;;;;;;5024657;28;19912;-87
2021/12/19 10:25:13;;;;;;;;;;;9.50;96.20;;;;;;5043604;28;19923;-87
2021/12/19 10:27:41;;;;;;;;;;;9.50;96.20;;;;;;5021919;28;19909;-87
2021/12/19 10:30:09;;;;;;;;;;;9.60;96.30;;;;;;5026984;28;19932;-87
2021/12/19 10:32:36;;;;;;;;;;;9.60;96.30;;;;;;5021570;28;20600;-87
2021/12/19 10:35:13;;;;;;;;;;;9.60;96.20;;;;;;5010458;28;20353;-87
2021/12/19 10:37:41;;;;;;;;;;;9.60;96.30;;;;;;5050102;28;20006;-87
2021/12/19 10:40:08;;;;;;;;;;;9.60;96.30;;;;;;5026307;28;19919;-87
2021/12/19 10:42:45;;;;;;;;;;;9.60;96.30;;;;;;5019370;28;19917;-86
2021/12/19 10:45:31;;;;;;;;;;;9.60;96.30;;;;;;5036761;28;19919;-86
2021/12/19 10:48:27;;;;;;;;;;;9.60;96.30;;;;;;5022632;28;19916;-86
2021/12/19 10:51:02;;;;;;;;;;;9.60;96.30;;;;;;5010108;28;20437;-86
2021/12/19 10:53:31;;;;;;;;;;;9.70;96.30;;;;;;5031965;28;19908;-87
2021/12/19 10:55:58;;;;;;;;;;;9.70;96.30;;;;;;5019698;28;19913;-87
2021/12/19 10:58:25;;;;;;;;;;;9.70;96.30;;;;;;5018131;28;20228;-87
2021/12/19 11:00:56;;;;;;;;;;;9.70;96.30;;;;;;5034385;28;19915;-86
2021/12/19 11:03:37;;;;;;;;;;;9.70;96.30;;;;;;5009576;28;19909;-86
2021/12/19 11:06:15;;;;;;;;;;;9.70;96.30;;;;;;5019218;28;19923;-86
2021/12/19 11:08:43;;;;;;;;;;;9.70;96.40;;;;;;5031078;28;19935;-86
2021/12/19 11:11:10;;;;;;;;;;;9.80;96.50;;;;;;5045639;28;20448;-86
2021/12/19 11:13:37;;;;;;;;;;;9.80;96.40;;;;;;5011404;28;19912;-87
2021/12/19 11:16:04;;;;;;;;;;;9.80;96.50;;;;;;5032995;28;19916;-86
2021/12/19 11:18:31;;;;;;;;;;;9.80;96.50;;;;;;5016282;28;19908;-86
2021/12/19 11:20:58;;;;;;;;;;;9.80;96.50;;;;;;5003186;28;19916;-86
2021/12/19 11:23:26;;;;;;;;;;;9.90;96.50;;;;;;5021515;28;19913;-86
2021/12/19 11:25:54;;;;;;;;;;;9.90;96.50;;;;;;5021456;28;20537;-86
2021/12/19 11:28:22;;;;;;;;;;;9.90;96.50;;;;;;5017524;28;19909;-86
2021/12/19 11:30:49;;;;;;;;;;;9.90;96.50;;;;;;5017513;28;20304;-86
2021/12/19 11:33:21;;;;;;;;;;;9.90;96.50;;;;;;5019599;28;19922;-86
2021/12/19 11:35:50;;;;;;;;;;;10.00;96.50;;;;;;5027243;28;20129;-86
2021/12/19 11:38:19;;;;;;;;;;;10.00;96.50;;;;;;5013788;28;19912;-86
2021/12/19 11:40:46;;;;;;;;;;;10.00;96.50;;;;;;5023208;28;20236;-86
2021/12/19 11:43:13;;;;;;;;;;;10.00;96.50;;;;;;5026099;28;19913;-86
2021/12/19 11:45:57;;;;;;;;;;;10.00;96.50;;;;;;5023336;28;19913;-86
2021/12/19 11:50:53;;;;;;;;;;;10.10;96.50;;;;;;5023002;28;20388;-86
2021/12/19 11:53:20;;;;;;;;;;;10.00;96.40;;;;;;5023357;28;19934;-86
2021/12/19 11:55:48;;;;;;;;;;;10.10;96.50;;;;;;5021254;28;19925;-86
2021/12/19 11:58:16;;;;;;;;;;;10.10;96.50;;;;;;5016700;28;19930;-86
2021/12/19 12:00:54;;;;;;;;;;;10.10;96.50;;;;;;5030392;28;19934;-86
2021/12/19 12:03:25;;;;;;;;;;;10.10;96.50;;;;;;5021748;28;20281;-86
2021/12/19 12:05:58;;;;;;;;;;;10.10;96.50;;;;;;5033188;28;19921;-86
2021/12/19 12:08:26;;;;;;;;;;;10.20;96.60;;;;;;5012977;28;20536;-86
2021/12/19 12:10:57;;;;;;;;;;;10.20;96.60;;;;;;5029785;28;19915;-86
2021/12/19 12:13:24;;;;;;;;;;;10.20;96.60;;;;;;5016540;28;20224;-86
2021/12/19 12:15:57;;;;;;;;;;;10.20;96.60;;;;;;5026496;28;20361;-86
2021/12/19 12:18:28;;;;;;;;;;;10.30;96.70;;;;;;5022537;28;21038;-86
2021/12/19 12:20:55;;;;;;;;;;;10.30;96.70;;;;;;5034328;28;20320;-86
2021/12/19 12:23:25;;;;;;;;;;;10.30;96.70;;;;;;5023683;28;20597;-86
2021/12/19 12:25:52;;;;;;;;;;;10.30;96.70;;;;;;5015180;28;19928;-86
2021/12/19 12:28:20;;;;;;;;;;;10.40;96.70;;;;;;5011105;28;20431;-85
2021/12/19 12:30:49;;;;;;;;;;;10.40;96.70;;;;;;5035380;28;19905;-86
2021/12/19 12:33:18;;;;;;;;;;;10.40;96.70;;;;;;5025926;28;19947;-86
2021/12/19 12:35:46;;;;;;;;;;;10.40;96.70;;;;;;5024684;28;20361;-86
2021/12/19 12:38:14;;;;;;;;;;;10.40;96.70;;;;;;5013299;28;20090;-86
2021/12/19 12:41:04;;;;;;;;;;;10.40;96.70;;;;;;5019777;28;19928;-86
2021/12/19 12:43:32;;;;;;;;;;;10.40;96.60;;;;;;5026699;28;19917;-86
2021/12/19 12:46:00;;;;;;;;;;;10.50;96.70;;;;;;5010078;28;20296;-86
2021/12/19 12:48:38;;;;;;;;;;;10.50;96.60;;;;;;5025302;28;20346;-86
2021/12/19 12:51:08;;;;;;;;;;;10.50;96.60;;;;;;5029483;28;19909;-85
2021/12/19 12:53:34;;;;;;;;;;;10.50;96.60;;;;;;5033603;28;19915;-86
2021/12/19 12:56:28;;;;;;;;;;;10.40;96.50;;;;;;5013393;28;19909;-86
2021/12/19 12:58:55;;;;;;;;;;;10.50;96.60;;;;;;5017061;28;19909;-86
2021/12/19 13:01:28;;;;;;;;;;;10.50;96.60;;;;;;5020205;28;20003;-86
2021/12/19 13:04:04;;;;;;;;;;;10.50;96.60;;;;;;5017583;28;19909;-85
2021/12/19 13:06:34;;;;;;;;;;;10.50;96.60;;;;;;5025760;28;19913;-85
2021/12/19 13:09:11;;;;;;;;;;;10.50;96.60;;;;;;5023623;28;20358;-86
2021/12/19 13:11:39;;;;;;;;;;;10.50;96.70;;;;;;5021000;28;20111;-86
2021/12/19 13:14:10;;;;;;;;;;;10.50;96.60;;;;;;5021569;28;20372;-85
2021/12/19 13:16:40;;;;;;;;;;;10.60;96.70;;;;;;5023690;28;19915;-85
2021/12/19 13:19:07;;;;;;;;;;;10.60;96.70;;;;;;5013162;28;20723;-85
2021/12/19 13:21:54;;;;;;;;;;;10.60;96.70;;;;;;5030178;28;19919;-85
2021/12/19 13:24:24;;;;;;;;;;;10.60;96.60;;;;;;5034642;28;19909;-86
2021/12/19 13:27:03;;;;;;;;;;;10.60;96.60;;;;;;5026390;28;19927;-86
2021/12/19 13:29:30;;;;;;;;;;;10.60;96.60;;;;;;5019177;28;19928;-86
2021/12/19 13:32:15;;;;;;;;;;;10.60;96.60;;;;;;5018326;28;19912;-85
2021/12/19 13:34:42;;;;;;;;;;;10.60;96.60;;;;;;5023361;28;19912;-85
2021/12/19 13:37:10;;;;;;;;;;;10.60;96.60;;;;;;5000322;28;20255;-85
2021/12/19 13:39:37;;;;;;;;;;;10.60;96.60;;;;;;5016569;28;19931;-86
2021/12/19 13:42:05;;;;;;;;;;;10.60;96.60;;;;;;5042601;28;19916;-86
2021/12/19 13:44:32;;;;;;;;;;;10.60;96.60;;;;;;5028489;28;20369;-86
2021/12/19 13:47:08;;;;;;;;;;;10.60;96.50;;;;;;5031294;28;19939;-85
2021/12/19 13:49:35;;;;;;;;;;;10.60;96.50;;;;;;5024321;28;19919;-85
2021/12/19 13:52:03;;;;;;;;;;;10.60;96.50;;;;;;5026801;28;19909;-85
2021/12/19 13:54:31;;;;;;;;;;;10.60;96.50;;;;;;5038820;28;19913;-85
2021/12/19 13:56:58;;;;;;;;;;;10.60;96.50;;;;;;5040187;28;20312;-85
2021/12/19 13:59:27;;;;;;;;;;;10.60;96.40;;;;;;5042114;28;19920;-85
2021/12/19 14:01:54;;;;;;;;;;;10.60;96.40;;;;;;5016296;28;19909;-86
2021/12/19 14:04:23;;;;;;;;;;;10.60;96.40;;;;;;5043598;28;19931;-86
2021/12/19 14:06:56;;;;;;;;;;;10.60;96.40;;;;;;5025129;28;19919;-85
2021/12/19 14:09:23;;;;;;;;;;;10.60;96.40;;;;;;5039882;28;20413;-86
2021/12/19 14:12:00;;;;;;;;;;;10.60;96.50;;;;;;5021416;28;19909;-86
2021/12/19 14:14:30;;;;;;;;;;;10.60;96.40;;;;;;5021183;28;20408;-85
2021/12/19 14:16:58;;;;;;;;;;;10.60;96.40;;;;;;5017772;28;19908;-85
2021/12/19 14:19:27;;;;;;;;;;;10.50;96.40;;;;;;5034434;28;19909;-86
2021/12/19 14:22:08;;;;;;;;;;;10.50;96.40;;;;;;5031391;28;19909;-86
2021/12/19 14:24:44;;;;;;;;;;;10.50;96.40;;;;;;5019760;28;19909;-85
2021/12/19 14:27:11;;;;;;;;;;;10.50;96.40;;;;;;5020628;28;20197;-85
2021/12/19 14:29:41;;;;;;;;;;;10.50;96.40;;;;;;5027287;28;20381;-85
2021/12/19 14:32:10;;;;;;;;;;;10.50;96.40;;;;;;5003677;28;25162;-85
2021/12/19 14:34:37;;;;;;;;;;;10.50;96.40;;;;;;5022709;28;20378;-85
2021/12/19 14:37:25;;;;;;;;;;;10.50;96.40;;;;;;5008939;28;19919;-86
2021/12/19 14:39:56;;;;;;;;;;;10.50;96.40;;;;;;5045047;28;19919;-85
2021/12/19 14:42:27;;;;;;;;;;;10.50;96.40;;;;;;5033141;28;20469;-85
2021/12/19 14:44:55;;;;;;;;;;;10.50;96.40;;;;;;5038568;28;20274;-85
2021/12/19 14:47:34;;;;;;;;;;;10.50;96.30;;;;;;5008258;28;20322;-85
2021/12/19 14:50:09;;;;;;;;;;;10.50;96.30;;;;;;5017534;28;19917;-85
2021/12/19 14:52:36;;;;;;;;;;;10.50;96.30;;;;;;5034967;28;19905;-85
2021/12/19 14:55:10;;;;;;;;;;;10.50;96.30;;;;;;5043072;28;19913;-85
2021/12/19 14:57:37;;;;;;;;;;;10.50;96.30;;;;;;5037365;28;20384;-85
2021/12/19 15:00:05;;;;;;;;;;;10.50;96.30;;;;;;5025494;28;19913;-85
2021/12/19 15:02:32;;;;;;;;;;;10.40;96.20;;;;;;5018977;28;20175;-86
2021/12/19 15:04:59;;;;;;;;;;;10.40;96.20;;;;;;5024548;28;19915;-85
2021/12/19 15:07:26;;;;;;;;;;;10.40;96.20;;;;;;5041275;28;19916;-85
2021/12/19 15:09:53;;;;;;;;;;;10.40;96.20;;;;;;5021535;28;19913;-85
2021/12/19 15:12:20;;;;;;;;;;;10.40;96.20;;;;;;5010974;28;19908;-85
2021/12/19 15:14:47;;;;;;;;;;;10.40;96.20;;;;;;5031299;28;19909;-85
2021/12/19 15:17:13;;;;;;;;;;;10.40;96.20;;;;;;5030885;28;20339;-85
2021/12/19 15:19:40;;;;;;;;;;;10.40;96.20;;;;;;5017238;28;19909;-85
2021/12/19 15:22:07;;;;;;;;;;;10.40;96.20;;;;;;4994072;28;20376;-85
2021/12/19 15:24:36;;;;;;;;;;;10.40;96.20;;;;;;5028352;28;19912;-85
2021/12/19 15:27:03;;;;;;;;;;;10.40;96.20;;;;;;5011043;28;19921;-85
2021/12/19 15:29:30;;;;;;;;;;;10.40;96.20;;;;;;5024220;28;19909;-86
2021/12/19 15:31:58;;;;;;;;;;;10.40;96.30;;;;;;5026227;28;20407;-85
2021/12/19 15:34:26;;;;;;;;;;;10.40;96.20;;;;;;5016849;28;19922;-86
2021/12/19 15:36:54;;;;;;;;;;;10.30;96.20;;;;;;5028314;28;19919;-85
2021/12/19 15:39:21;;;;;;;;;;;10.40;96.20;;;;;;5022849;28;20107;-85
2021/12/19 15:41:49;;;;;;;;;;;10.30;96.20;;;;;;5004092;28;19915;-85
2021/12/19 15:44:16;;;;;;;;;;;10.30;96.20;;;;;;5036683;28;20090;-85
2021/12/19 15:46:43;;;;;;;;;;;10.30;96.20;;;;;;5015763;28;19919;-85
2021/12/19 15:49:10;;;;;;;;;;;10.30;96.20;;;;;;5019636;28;20588;-85